createdAt,value
2022-12-11T00:00:54.114Z,17.50
2022-12-11T00:03:20.827Z,19.98
2022-12-11T00:05:47.395Z,16.98
2022-12-11T00:08:14.262Z,19.17
2022-12-11T00:10:48.025Z,21.40
2022-12-11T00:13:14.564Z,21.60
2022-12-11T00:15:41.075Z,26.88
2022-12-11T00:18:12.033Z,25.58
2022-12-11T00:20:38.514Z,22.55
2022-12-11T00:23:05.500Z,22.17
2022-12-11T00:25:32.010Z,27.38
2022-12-11T00:27:58.530Z,25.67
2022-12-11T00:30:25.017Z,26.80
2022-12-11T00:32:51.911Z,27.33
2022-12-11T00:35:18.445Z,26.38
2022-12-11T00:37:44.974Z,26.77
2022-12-11T00:40:11.601Z,23.60
2022-12-11T00:42:38.277Z,28.40
2022-12-11T00:45:04.963Z,23.02
2022-12-11T00:47:31.495Z,19.55
2022-12-11T00:49:58.044Z,22.23
2022-12-11T00:52:24.726Z,21.95
2022-12-11T00:54:51.209Z,24.05
2022-12-11T00:57:17.715Z,24.35
2022-12-11T00:59:44.272Z,21.92
2022-12-11T01:02:10.777Z,20.98
2022-12-11T01:04:37.482Z,23.08
2022-12-11T01:07:04.298Z,22.45
2022-12-11T01:09:49.192Z,22.92
2022-12-11T01:12:15.732Z,21.38
2022-12-11T01:14:42.234Z,22.65
2022-12-11T01:17:08.729Z,20.75
2022-12-11T01:19:35.267Z,25.13
2022-12-11T01:22:01.733Z,24.90
2022-12-11T01:24:28.507Z,21.63
2022-12-11T01:26:54.973Z,24.83
2022-12-11T01:29:21.481Z,22.52
2022-12-11T01:31:47.980Z,23.23
2022-12-11T01:34:14.490Z,21.80
2022-12-11T01:36:40.972Z,20.48
2022-12-11T01:39:07.518Z,20.95
2022-12-11T01:41:34.049Z,22.38
2022-12-11T01:44:21.207Z,28.92
2022-12-11T01:46:47.937Z,22.80
2022-12-11T01:49:15.582Z,23.60
2022-12-11T01:51:55.015Z,22.42
2022-12-11T01:54:22.940Z,26.10
2022-12-11T01:56:51.978Z,26.13
2022-12-11T01:59:21.420Z,26.70
2022-12-11T02:01:52.885Z,23.88
2022-12-11T02:04:20.014Z,24.30
2022-12-11T02:06:48.961Z,23.85
2022-12-11T02:09:18.373Z,23.88
2022-12-11T02:12:00.096Z,22.88
2022-12-11T02:14:44.246Z,27.00
2022-12-11T02:17:14.541Z,27.58
2022-12-11T02:20:07.239Z,24.95
2022-12-11T02:22:38.775Z,21.60
2022-12-11T02:25:16.890Z,23.65
2022-12-11T02:27:56.394Z,25.88
2022-12-11T02:30:23.677Z,28.42
2022-12-11T02:32:56.883Z,28.48
2022-12-11T02:35:31.423Z,23.73
2022-12-11T02:38:02.667Z,22.63
2022-12-11T02:40:31.826Z,25.77
2022-12-11T02:43:01.345Z,25.33
2022-12-11T02:45:28.645Z,32.28
2022-12-11T02:47:57.518Z,23.40
2022-12-11T02:50:25.102Z,27.02
2022-12-11T02:52:54.238Z,28.75
2022-12-11T02:55:20.796Z,25.17
2022-12-11T02:57:53.883Z,26.55
2022-12-11T03:00:21.827Z,25.20
2022-12-11T03:02:48.975Z,25.60
2022-12-11T03:05:15.806Z,24.73
2022-12-11T03:07:44.254Z,26.30
2022-12-11T03:10:14.609Z,23.95
2022-12-11T03:12:43.499Z,22.08
2022-12-11T03:15:14.600Z,22.00
2022-12-11T03:17:54.831Z,26.17
2022-12-11T03:20:30.826Z,29.23
2022-12-11T03:23:21.571Z,24.45
2022-12-11T03:25:57.342Z,22.80
2022-12-11T03:28:29.576Z,25.30
2022-12-11T03:30:56.507Z,27.17
2022-12-11T03:33:30.951Z,22.00
2022-12-11T03:36:04.085Z,20.55
2022-12-11T03:38:42.715Z,20.73
2022-12-11T03:41:10.246Z,25.30
2022-12-11T03:43:37.497Z,24.25
2022-12-11T03:46:04.731Z,21.13
2022-12-11T03:48:33.959Z,19.27
2022-12-11T03:51:02.535Z,25.85
2022-12-11T03:53:29.229Z,23.88
2022-12-11T03:55:58.204Z,27.30
2022-12-11T03:58:24.808Z,20.48
2022-12-11T04:00:51.319Z,26.50
2022-12-11T04:03:17.975Z,20.95
2022-12-11T04:05:49.636Z,18.77
2022-12-11T04:08:17.989Z,28.60
2022-12-11T04:10:44.567Z,23.77
2022-12-11T04:13:11.089Z,27.63
2022-12-11T04:15:38.249Z,20.75
2022-12-11T04:18:40.850Z,25.85
2022-12-11T04:21:27.549Z,25.15
2022-12-11T04:24:12.502Z,22.40
2022-12-11T04:26:39.133Z,23.00
2022-12-11T04:29:05.722Z,22.45
2022-12-11T04:31:32.644Z,27.20
2022-12-11T04:33:59.180Z,22.67
2022-12-11T04:36:25.687Z,29.52
2022-12-11T04:38:52.186Z,26.75
2022-12-11T04:41:18.882Z,26.35
2022-12-11T04:43:45.540Z,24.85
2022-12-11T04:46:21.930Z,25.30
2022-12-11T04:48:52.532Z,23.95
2022-12-11T04:51:23.539Z,25.77
2022-12-11T04:53:50.030Z,18.25
2022-12-11T04:56:16.887Z,18.45
2022-12-11T04:58:44.202Z,26.40
2022-12-11T05:01:16.635Z,19.65
2022-12-11T05:03:43.381Z,25.50
2022-12-11T05:06:10.325Z,21.88
2022-12-11T05:08:38.443Z,21.65
2022-12-11T05:11:06.851Z,23.02
2022-12-11T05:13:33.392Z,22.85
2022-12-11T05:16:00.009Z,21.38
2022-12-11T05:18:26.622Z,23.77
2022-12-11T05:21:01.175Z,22.23
2022-12-11T05:23:27.754Z,19.50
2022-12-11T05:25:55.590Z,21.92
2022-12-11T05:28:23.274Z,20.60
2022-12-11T05:30:57.992Z,22.35
2022-12-11T05:33:25.298Z,23.55
2022-12-11T05:35:52.137Z,22.42
2022-12-11T05:38:18.942Z,25.20
2022-12-11T05:40:45.443Z,22.63
2022-12-11T05:43:11.968Z,22.92
2022-12-11T05:45:38.821Z,25.17
2022-12-11T05:48:05.501Z,22.52
2022-12-11T05:50:32.926Z,21.48
2022-12-11T05:53:00.014Z,24.38
2022-12-11T05:55:26.546Z,27.25
2022-12-11T05:57:53.062Z,27.88
2022-12-11T06:00:19.615Z,23.77
2022-12-11T06:02:46.150Z,28.67
2022-12-11T06:05:17.671Z,28.58
2022-12-11T06:07:50.059Z,29.80
2022-12-11T06:10:16.838Z,26.20
2022-12-11T06:12:43.463Z,30.45
2022-12-11T06:15:19.185Z,28.45
2022-12-11T06:17:45.679Z,29.70
2022-12-11T06:20:12.205Z,25.60
2022-12-11T06:22:38.891Z,27.52
2022-12-11T06:25:06.285Z,29.05
2022-12-11T06:27:40.597Z,28.88
2022-12-11T06:30:19.075Z,33.42
2022-12-11T06:32:53.473Z,28.98
2022-12-11T06:35:20.263Z,27.98
2022-12-11T06:37:49.772Z,33.67
2022-12-11T06:40:16.442Z,26.88
2022-12-11T06:42:43.019Z,30.83
2022-12-11T06:45:10.507Z,28.90
2022-12-11T06:47:37.311Z,27.02
2022-12-11T06:50:04.053Z,31.30
2022-12-11T06:52:34.221Z,29.15
2022-12-11T06:55:07.012Z,33.13
2022-12-11T06:57:37.005Z,32.53
2022-12-11T07:00:04.283Z,33.17
2022-12-11T07:02:30.842Z,33.05
2022-12-11T07:04:57.377Z,29.00
2022-12-11T07:07:23.911Z,29.80
2022-12-11T07:09:51.608Z,31.52
2022-12-11T07:12:18.211Z,33.35
2022-12-11T07:14:44.822Z,30.05
2022-12-11T07:17:11.385Z,30.10
2022-12-11T07:19:37.904Z,36.70
2022-12-11T07:22:04.410Z,32.47
2022-12-11T07:24:31.063Z,34.50
2022-12-11T07:26:57.733Z,38.80
2022-12-11T07:29:24.251Z,34.28
2022-12-11T07:31:50.894Z,34.60
2022-12-11T07:34:17.413Z,27.67
2022-12-11T07:36:43.997Z,33.67
2022-12-11T07:39:12.116Z,31.67
2022-12-11T07:41:39.466Z,32.90
2022-12-11T07:44:10.411Z,30.77
2022-12-11T07:46:37.655Z,30.13
2022-12-11T07:49:05.961Z,31.27
2022-12-11T07:51:36.342Z,29.15
2022-12-11T07:54:16.360Z,34.70
2022-12-11T07:56:51.160Z,31.42
2022-12-11T07:59:20.980Z,27.10
2022-12-11T08:01:49.244Z,33.58
2022-12-11T08:04:15.977Z,34.75
2022-12-11T08:06:43.177Z,27.98
2022-12-11T08:09:17.486Z,23.30
2022-12-11T08:11:49.582Z,28.17
2022-12-11T08:14:16.335Z,31.63
2022-12-11T08:16:44.185Z,33.78
2022-12-11T08:19:13.932Z,33.80
2022-12-11T08:21:40.920Z,31.92
2022-12-11T08:24:08.392Z,28.77
2022-12-11T08:26:34.919Z,30.95
2022-12-11T08:29:02.562Z,27.38
2022-12-11T08:31:29.694Z,28.88
2022-12-11T08:33:56.963Z,35.63
2022-12-11T08:36:23.756Z,27.23
2022-12-11T08:38:50.804Z,27.05
2022-12-11T08:41:36.219Z,26.95
2022-12-11T08:44:05.962Z,25.48
2022-12-11T08:46:32.815Z,30.38
2022-12-11T08:48:59.809Z,26.00
2022-12-11T08:51:27.935Z,29.00
2022-12-11T08:53:56.122Z,23.35
2022-12-11T08:56:23.726Z,27.13
2022-12-11T08:58:58.478Z,30.85
2022-12-11T09:01:26.471Z,32.65
2022-12-11T09:03:54.815Z,29.30
2022-12-11T09:06:23.544Z,24.75
2022-12-11T09:08:52.993Z,31.27
2022-12-11T09:11:22.872Z,31.73
2022-12-11T09:13:49.529Z,27.75
2022-12-11T09:16:17.718Z,26.42
2022-12-11T09:18:49.287Z,29.83
2022-12-11T09:21:18.358Z,31.58
2022-12-11T09:23:44.853Z,30.63
2022-12-11T09:26:14.428Z,27.00
2022-12-11T09:28:46.324Z,29.85
2022-12-11T09:31:16.136Z,27.65
2022-12-11T09:33:42.833Z,24.27
2022-12-11T09:36:10.038Z,32.40
2022-12-11T09:38:36.629Z,26.48
2022-12-11T09:41:22.396Z,27.42
2022-12-11T09:43:54.350Z,27.30
2022-12-11T09:46:24.439Z,25.83
2022-12-11T09:48:53.441Z,24.88
2022-12-11T09:51:19.947Z,28.38
2022-12-11T09:53:46.642Z,25.35
2022-12-11T09:56:29.743Z,23.98
2022-12-11T09:59:08.066Z,26.45
2022-12-11T10:01:40.789Z,27.83
2022-12-11T10:04:35.505Z,25.10
2022-12-11T10:07:14.406Z,27.08
2022-12-11T10:09:44.156Z,27.30
2022-12-11T10:12:26.239Z,26.92
2022-12-11T10:15:16.890Z,23.00
2022-12-11T10:17:47.438Z,28.30
2022-12-11T10:20:28.591Z,28.90
2022-12-11T10:22:56.748Z,26.63
2022-12-11T10:25:32.326Z,29.05
2022-12-11T10:28:00.544Z,24.10
2022-12-11T10:30:34.732Z,35.80
2022-12-11T10:33:10.927Z,26.10
2022-12-11T10:35:46.308Z,26.15
2022-12-11T10:38:21.427Z,24.58
2022-12-11T10:40:52.221Z,22.05
2022-12-11T10:43:18.877Z,23.90
2022-12-11T10:45:53.207Z,27.63
2022-12-11T10:48:20.670Z,24.73
2022-12-11T10:50:57.549Z,21.95
2022-12-11T10:53:24.184Z,24.70
2022-12-11T10:55:50.739Z,25.35
2022-12-11T10:58:20.270Z,23.33
2022-12-11T11:00:58.495Z,20.58
2022-12-11T11:03:27.617Z,16.70
2022-12-11T11:06:21.571Z,21.48
2022-12-11T11:08:50.977Z,20.38
2022-12-11T11:11:33.934Z,17.25
2022-12-11T11:14:05.939Z,18.23
2022-12-11T11:16:36.207Z,17.65
2022-12-11T11:19:02.783Z,15.50
2022-12-11T11:21:30.300Z,19.23
2022-12-11T11:23:56.865Z,16.05
2022-12-11T11:26:23.635Z,19.77
2022-12-11T11:28:55.629Z,17.70
2022-12-11T11:31:31.459Z,19.27
2022-12-11T11:34:00.299Z,17.70
2022-12-11T11:36:28.635Z,19.70
2022-12-11T11:41:58.669Z,16.40
2022-12-11T11:44:30.019Z,16.95
2022-12-11T11:47:10.616Z,22.65
2022-12-11T11:49:55.435Z,19.63
2022-12-11T11:52:28.532Z,23.27
2022-12-11T11:55:21.659Z,16.38
2022-12-11T11:57:55.833Z,19.27
2022-12-11T12:00:31.918Z,19.92
2022-12-11T12:03:04.173Z,19.67
2022-12-11T12:05:50.591Z,19.30
2022-12-11T12:08:33.293Z,17.92
2022-12-11T12:11:10.771Z,19.02
2022-12-11T12:14:12.849Z,21.42
2022-12-11T12:17:26.378Z,23.13
2022-12-11T12:19:53.270Z,23.63
2022-12-11T12:22:35.550Z,20.05
2022-12-11T12:25:24.932Z,20.83
2022-12-11T12:28:00.771Z,23.30
2022-12-11T12:30:32.310Z,21.13
2022-12-11T12:33:04.965Z,26.17
2022-12-11T12:35:36.932Z,23.88
2022-12-11T12:38:22.743Z,23.35
2022-12-11T12:41:04.605Z,24.38
2022-12-11T12:43:53.178Z,24.13
2022-12-11T12:46:27.650Z,21.25
2022-12-11T12:48:55.514Z,22.13
2022-12-11T12:51:22.094Z,25.73
2022-12-11T12:53:59.709Z,25.75
2022-12-11T12:56:28.023Z,26.13
2022-12-11T13:01:27.795Z,23.10
2022-12-11T13:04:03.034Z,25.50
2022-12-11T13:06:41.104Z,23.15
2022-12-11T13:09:17.420Z,26.67
2022-12-11T13:11:45.769Z,30.17
2022-12-11T13:16:43.884Z,25.85
2022-12-11T13:19:42.397Z,32.53
2022-12-11T13:22:12.257Z,30.48
2022-12-11T13:24:48.902Z,32.10
2022-12-11T13:27:29.642Z,26.00
2022-12-11T13:30:23.184Z,30.73
2022-12-11T13:33:14.890Z,28.90
2022-12-11T13:35:41.611Z,31.80
2022-12-11T13:38:15.849Z,30.38
2022-12-11T13:40:44.498Z,31.17
2022-12-11T13:43:28.882Z,25.85
2022-12-11T13:46:03.907Z,28.77
2022-12-11T13:48:34.204Z,28.20
2022-12-11T13:51:01.592Z,31.13
2022-12-11T13:53:28.410Z,25.02
2022-12-11T13:56:00.585Z,33.60
2022-12-11T13:58:28.230Z,27.20
2022-12-11T14:01:11.496Z,26.77
2022-12-11T14:03:52.837Z,29.20
2022-12-11T14:08:48.673Z,27.40
2022-12-11T14:11:27.755Z,33.90
2022-12-11T14:13:55.747Z,29.40
2022-12-11T14:16:24.388Z,31.98
2022-12-11T14:18:51.721Z,27.35
2022-12-11T14:21:20.344Z,35.95
2022-12-11T14:23:58.021Z,31.85
2022-12-11T14:26:27.157Z,29.98
2022-12-11T14:28:53.949Z,32.15
2022-12-11T14:31:31.038Z,32.22
2022-12-11T14:34:02.158Z,31.75
2022-12-11T14:36:29.409Z,27.63
2022-12-11T14:38:59.725Z,31.30
2022-12-11T14:41:36.780Z,32.42
2022-12-11T14:44:05.334Z,26.65
2022-12-11T14:46:39.146Z,32.22
2022-12-11T14:49:12.844Z,26.27
2022-12-11T14:51:40.775Z,32.10
2022-12-11T14:54:07.905Z,27.52
2022-12-11T14:56:34.855Z,29.17
2022-12-11T14:59:06.719Z,32.33
2022-12-11T15:01:35.922Z,23.13
2022-12-11T15:04:14.635Z,30.45
2022-12-11T15:06:46.903Z,26.50
2022-12-11T15:09:28.841Z,31.00
2022-12-11T15:11:57.554Z,33.00
2022-12-11T15:14:25.562Z,26.10
2022-12-11T15:16:54.782Z,33.72
2022-12-11T15:19:31.682Z,29.92
2022-12-11T15:22:05.845Z,27.88
2022-12-11T15:24:38.290Z,29.70
2022-12-11T15:27:04.865Z,32.55
2022-12-11T15:29:39.670Z,26.83
2022-12-11T15:34:43.048Z,25.58
2022-12-11T15:37:18.610Z,33.15
2022-12-11T15:39:45.134Z,27.77
2022-12-11T15:42:14.817Z,36.95
2022-12-11T15:44:41.975Z,29.23
2022-12-11T15:47:13.515Z,29.60
2022-12-11T15:49:40.033Z,31.45
2022-12-11T15:52:06.516Z,30.65
2022-12-11T15:54:33.161Z,27.23
2022-12-11T15:57:01.769Z,27.38
2022-12-11T15:59:28.268Z,29.48
2022-12-11T16:01:54.806Z,27.85
2022-12-11T16:04:21.381Z,30.88
2022-12-11T16:06:47.862Z,29.65
2022-12-11T16:09:14.409Z,30.58
2022-12-11T16:11:40.899Z,29.45
2022-12-11T16:14:07.380Z,29.63
2022-12-11T16:16:33.895Z,33.90
2022-12-11T16:19:00.748Z,29.52
2022-12-11T16:21:27.275Z,31.27
2022-12-11T16:23:53.809Z,30.48
2022-12-11T16:26:20.377Z,29.55
2022-12-11T16:28:46.886Z,32.95
2022-12-11T16:31:14.800Z,28.88
2022-12-11T16:33:41.698Z,32.55
2022-12-11T16:36:21.932Z,31.98
2022-12-11T16:38:53.570Z,30.50
2022-12-11T16:41:22.818Z,27.65
2022-12-11T16:43:49.717Z,32.25
2022-12-11T16:46:20.350Z,32.00
2022-12-11T16:48:47.050Z,32.78
2022-12-11T16:51:13.879Z,30.63
2022-12-11T16:53:40.867Z,33.95
2022-12-11T16:56:08.320Z,36.50
2022-12-11T16:58:35.275Z,27.67
2022-12-11T17:01:02.364Z,27.40
2022-12-11T17:03:30.234Z,31.05
2022-12-11T17:05:57.712Z,38.50
2022-12-11T17:08:24.749Z,32.38
2022-12-11T17:10:52.175Z,32.50
2022-12-11T17:13:18.819Z,37.55
2022-12-11T17:15:45.683Z,32.83
2022-12-11T17:18:12.402Z,31.85
2022-12-11T17:20:42.818Z,32.22
2022-12-11T17:23:11.015Z,28.95
2022-12-11T17:25:44.799Z,39.10
2022-12-11T17:28:13.622Z,30.83
2022-12-11T17:30:44.157Z,28.95
2022-12-11T17:33:11.704Z,29.27
2022-12-11T17:35:38.656Z,37.40
2022-12-11T17:38:05.315Z,29.60
2022-12-11T17:40:32.087Z,29.35
2022-12-11T17:42:59.278Z,30.95
2022-12-11T17:45:25.827Z,34.10
2022-12-11T17:47:52.310Z,29.00
2022-12-11T17:50:19.416Z,35.97
2022-12-11T17:52:45.888Z,31.10
2022-12-11T17:55:12.778Z,32.20
2022-12-11T17:57:39.546Z,27.67
2022-12-11T18:00:06.849Z,25.52
2022-12-11T18:02:38.892Z,27.65
2022-12-11T18:05:06.175Z,32.78
2022-12-11T18:07:32.666Z,33.28
2022-12-11T18:09:59.229Z,32.30
2022-12-11T18:12:25.799Z,34.05
2022-12-11T18:14:52.353Z,29.33
2022-12-11T18:17:18.842Z,32.70
2022-12-11T18:19:46.324Z,28.88
2022-12-11T18:22:12.908Z,28.40
2022-12-11T18:24:39.421Z,26.67
2022-12-11T18:27:10.168Z,35.70
2022-12-11T18:29:37.072Z,30.45
2022-12-11T18:32:03.845Z,34.33
2022-12-11T18:34:30.398Z,30.60
2022-12-11T18:36:56.932Z,29.60
2022-12-11T18:39:23.845Z,33.03
2022-12-11T18:42:09.737Z,35.53
2022-12-11T18:44:37.633Z,32.97
2022-12-11T18:47:04.221Z,30.10
2022-12-11T18:49:31.008Z,37.45
2022-12-11T18:51:57.562Z,29.35
2022-12-11T18:54:24.086Z,26.48
2022-12-11T18:56:50.563Z,33.88
2022-12-11T18:59:18.238Z,31.70
2022-12-11T19:01:44.773Z,35.25
2022-12-11T19:04:11.299Z,30.73
2022-12-11T19:06:37.925Z,33.42
2022-12-11T19:09:06.803Z,32.17
2022-12-11T19:11:34.228Z,32.05
2022-12-11T19:14:00.975Z,32.92
2022-12-11T19:16:30.020Z,36.30
2022-12-11T19:19:01.700Z,32.58
2022-12-11T19:21:30.129Z,30.10
2022-12-11T19:23:56.644Z,38.60
2022-12-11T19:26:23.947Z,32.47
2022-12-11T19:28:51.349Z,30.88
2022-12-11T19:31:21.385Z,33.28
2022-12-11T19:33:48.123Z,36.63
2022-12-11T19:36:20.791Z,35.70
2022-12-11T19:38:47.800Z,31.10
2022-12-11T19:41:23.501Z,37.67
2022-12-11T19:43:50.836Z,33.10
2022-12-11T19:46:18.798Z,36.28
2022-12-11T19:48:45.407Z,35.95
2022-12-11T19:51:17.375Z,30.98
2022-12-11T19:53:45.630Z,29.88
2022-12-11T19:56:12.805Z,29.08
2022-12-11T19:58:40.545Z,32.20
2022-12-11T20:01:07.466Z,27.27
2022-12-11T20:03:35.039Z,29.52
2022-12-11T20:06:07.217Z,34.38
2022-12-11T20:08:49.484Z,31.33
2022-12-11T20:11:18.620Z,33.05
2022-12-11T20:13:46.705Z,37.38
2022-12-11T20:16:13.937Z,34.97
2022-12-11T20:18:40.603Z,34.55
2022-12-11T20:21:09.417Z,33.80
2022-12-11T20:23:36.589Z,31.23
2022-12-11T20:26:08.400Z,37.88
2022-12-11T20:28:35.354Z,32.33
2022-12-11T20:31:07.223Z,35.58
2022-12-11T20:33:33.844Z,31.80
2022-12-11T20:36:00.321Z,31.77
2022-12-11T20:38:31.258Z,39.22
2022-12-11T20:41:00.744Z,35.88
2022-12-11T20:43:27.298Z,34.13
2022-12-11T20:45:53.913Z,39.45
2022-12-11T20:48:20.458Z,34.80
2022-12-11T20:50:47.001Z,39.20
2022-12-11T20:53:13.525Z,40.53
2022-12-11T20:55:41.349Z,34.92
2022-12-11T20:58:08.859Z,37.97
2022-12-11T21:00:39.437Z,33.50
2022-12-11T21:03:06.385Z,34.55
2022-12-11T21:05:32.967Z,31.25
2022-12-11T21:07:59.582Z,39.17
2022-12-11T21:10:26.141Z,36.85
2022-12-11T21:12:52.608Z,38.92
2022-12-11T21:15:19.124Z,33.58
2022-12-11T21:17:45.719Z,32.55
2022-12-11T21:20:12.328Z,35.58
2022-12-11T21:22:38.814Z,31.13
2022-12-11T21:25:05.773Z,42.65
2022-12-11T21:27:32.265Z,40.42
2022-12-11T21:29:58.829Z,33.78
2022-12-11T21:32:25.527Z,38.47
2022-12-11T21:34:52.018Z,37.13
2022-12-11T21:37:18.651Z,40.92
2022-12-11T21:39:45.228Z,35.30
2022-12-11T21:42:11.754Z,33.03
2022-12-11T21:45:37.138Z,32.80
2022-12-11T21:47:24.908Z,30.38
2022-12-11T21:49:51.397Z,32.92
2022-12-11T21:52:17.909Z,33.00
2022-12-11T21:54:44.388Z,27.55
2022-12-11T21:57:10.892Z,29.70
2022-12-11T21:59:37.402Z,35.30
2022-12-11T22:02:03.936Z,28.38
2022-12-11T22:04:30.515Z,26.58
2022-12-11T22:06:57.012Z,27.80
2022-12-11T22:09:23.825Z,26.70
2022-12-11T22:11:55.158Z,30.75
2022-12-11T22:14:24.809Z,27.20
2022-12-11T22:16:54.430Z,24.92
2022-12-11T22:19:21.388Z,26.60
2022-12-11T22:21:48.100Z,29.80
2022-12-11T22:24:15.181Z,28.50
2022-12-11T22:26:41.919Z,28.98
2022-12-11T22:29:08.979Z,26.67
2022-12-11T22:31:38.430Z,28.17
2022-12-11T22:34:05.485Z,28.95
2022-12-11T22:36:32.272Z,24.70
2022-12-11T22:39:00.304Z,27.13
2022-12-11T22:41:31.926Z,25.33
2022-12-11T22:43:59.136Z,26.40
2022-12-11T22:46:28.756Z,26.67
2022-12-11T22:48:55.538Z,29.08
2022-12-11T22:51:22.788Z,30.15
2022-12-11T22:53:49.410Z,29.92
2022-12-11T22:56:16.151Z,32.50
2022-12-11T22:58:42.686Z,27.08
2022-12-11T23:01:12.059Z,29.98
2022-12-11T23:03:38.985Z,31.20
2022-12-11T23:06:08.110Z,31.75
2022-12-11T23:08:35.562Z,27.33
2022-12-11T23:11:02.792Z,27.60
2022-12-11T23:13:29.330Z,24.80
2022-12-11T23:15:55.935Z,25.15
2022-12-11T23:18:22.425Z,18.40
2022-12-11T23:20:49.364Z,29.42
2022-12-11T23:23:19.025Z,26.35
2022-12-11T23:25:51.455Z,30.13
2022-12-11T23:28:18.137Z,30.02
2022-12-11T23:30:45.138Z,30.52
2022-12-11T23:33:12.134Z,29.52
2022-12-11T23:35:38.919Z,35.03
2022-12-11T23:38:05.478Z,30.13
2022-12-11T23:40:32.870Z,30.45
2022-12-11T23:42:59.362Z,28.90
2022-12-11T23:45:25.885Z,33.80
2022-12-11T23:47:52.346Z,29.55
2022-12-11T23:50:19.244Z,34.30
2022-12-11T23:52:45.720Z,38.53
2022-12-11T23:55:12.476Z,36.50
2022-12-11T23:57:39.091Z,32.10
